sensor_id;sensor_type;location;lat;lon;timestamp;P1;durP1;ratioP1;P2;durP2;ratioP2
81799;SDS011;71195;52.528;5.704;2023-08-08T00:00:10;2.17;;;0.63;;
81799;SDS011;71195;52.528;5.704;2023-08-08T00:02:40;2.08;;;0.52;;
81799;SDS011;71195;52.528;5.704;2023-08-08T00:05:09;3.55;;;0.85;;
81799;SDS011;71195;52.528;5.704;2023-08-08T00:07:38;4.55;;;1.02;;
81799;SDS011;71195;52.528;5.704;2023-08-08T00:10:08;4.85;;;0.68;;
81799;SDS011;71195;52.528;5.704;2023-08-08T00:12:40;5.50;;;0.70;;
81799;SDS011;71195;52.528;5.704;2023-08-08T00:15:09;1.88;;;0.73;;
81799;SDS011;71195;52.528;5.704;2023-08-08T00:17:39;1.65;;;0.55;;
81799;SDS011;71195;52.528;5.704;2023-08-08T00:20:08;3.90;;;0.77;;
81799;SDS011;71195;52.528;5.704;2023-08-08T00:22:39;1.83;;;0.45;;
81799;SDS011;71195;52.528;5.704;2023-08-08T00:25:08;4.50;;;0.85;;
81799;SDS011;71195;52.528;5.704;2023-08-08T00:27:40;5.13;;;0.63;;
81799;SDS011;71195;52.528;5.704;2023-08-08T00:30:10;1.42;;;0.50;;
81799;SDS011;71195;52.528;5.704;2023-08-08T00:32:40;4.68;;;1.00;;
81799;SDS011;71195;52.528;5.704;2023-08-08T00:35:10;3.35;;;0.73;;
81799;SDS011;71195;52.528;5.704;2023-08-08T00:37:39;3.53;;;1.02;;
81799;SDS011;71195;52.528;5.704;2023-08-08T00:40:08;2.92;;;1.00;;
81799;SDS011;71195;52.528;5.704;2023-08-08T00:42:41;2.10;;;0.75;;
81799;SDS011;71195;52.528;5.704;2023-08-08T00:45:12;7.60;;;1.02;;
81799;SDS011;71195;52.528;5.704;2023-08-08T00:47:42;6.10;;;1.17;;
81799;SDS011;71195;52.528;5.704;2023-08-08T00:50:12;4.93;;;0.80;;
81799;SDS011;71195;52.528;5.704;2023-08-08T00:52:43;5.22;;;0.70;;
81799;SDS011;71195;52.528;5.704;2023-08-08T00:57:47;4.15;;;1.17;;
81799;SDS011;71195;52.528;5.704;2023-08-08T01:00:16;6.05;;;0.88;;
81799;SDS011;71195;52.528;5.704;2023-08-08T01:02:46;5.25;;;0.98;;
81799;SDS011;71195;52.528;5.704;2023-08-08T01:05:16;4.75;;;1.25;;
81799;SDS011;71195;52.528;5.704;2023-08-08T01:07:47;3.67;;;1.02;;
81799;SDS011;71195;52.528;5.704;2023-08-08T01:10:21;5.07;;;1.02;;
81799;SDS011;71195;52.528;5.704;2023-08-08T01:12:56;11.30;;;1.52;;
81799;SDS011;71195;52.528;5.704;2023-08-08T01:15:29;3.58;;;1.30;;
81799;SDS011;71195;52.528;5.704;2023-08-08T01:18:01;3.08;;;0.75;;
81799;SDS011;71195;52.528;5.704;2023-08-08T01:20:32;3.90;;;1.17;;
81799;SDS011;71195;52.528;5.704;2023-08-08T01:23:03;3.97;;;1.13;;
81799;SDS011;71195;52.528;5.704;2023-08-08T01:25:41;3.85;;;0.65;;
81799;SDS011;71195;52.528;5.704;2023-08-08T01:28:12;3.35;;;0.90;;
81799;SDS011;71195;52.528;5.704;2023-08-08T01:30:41;4.93;;;0.95;;
81799;SDS011;71195;52.528;5.704;2023-08-08T01:33:12;5.78;;;1.52;;
81799;SDS011;71195;52.528;5.704;2023-08-08T01:35:42;4.00;;;1.20;;
81799;SDS011;71195;52.528;5.704;2023-08-08T01:38:16;3.63;;;1.13;;
81799;SDS011;71195;52.528;5.704;2023-08-08T01:40:51;7.65;;;2.38;;
81799;SDS011;71195;52.528;5.704;2023-08-08T01:43:20;3.53;;;0.88;;
81799;SDS011;71195;52.528;5.704;2023-08-08T01:45:51;3.00;;;0.68;;
81799;SDS011;71195;52.528;5.704;2023-08-08T01:48:21;1.95;;;0.55;;
81799;SDS011;71195;52.528;5.704;2023-08-08T01:50:51;5.82;;;0.93;;
81799;SDS011;71195;52.528;5.704;2023-08-08T01:53:20;3.55;;;1.05;;
81799;SDS011;71195;52.528;5.704;2023-08-08T01:55:52;3.97;;;1.38;;
81799;SDS011;71195;52.528;5.704;2023-08-08T01:58:21;3.60;;;0.80;;
81799;SDS011;71195;52.528;5.704;2023-08-08T02:00:51;3.58;;;1.10;;
81799;SDS011;71195;52.528;5.704;2023-08-08T02:03:20;3.90;;;1.00;;
81799;SDS011;71195;52.528;5.704;2023-08-08T02:05:49;3.80;;;0.98;;
81799;SDS011;71195;52.528;5.704;2023-08-08T02:08:18;1.83;;;0.80;;
81799;SDS011;71195;52.528;5.704;2023-08-08T02:10:47;3.88;;;0.85;;
81799;SDS011;71195;52.528;5.704;2023-08-08T02:13:19;4.93;;;1.00;;
81799;SDS011;71195;52.528;5.704;2023-08-08T02:15:49;3.08;;;0.80;;
81799;SDS011;71195;52.528;5.704;2023-08-08T02:18:18;3.33;;;0.52;;
81799;SDS011;71195;52.528;5.704;2023-08-08T02:20:47;4.20;;;0.70;;
81799;SDS011;71195;52.528;5.704;2023-08-08T02:23:17;5.00;;;1.15;;
81799;SDS011;71195;52.528;5.704;2023-08-08T02:25:46;1.52;;;0.43;;
81799;SDS011;71195;52.528;5.704;2023-08-08T02:28:15;2.75;;;0.45;;
81799;SDS011;71195;52.528;5.704;2023-08-08T02:30:47;2.20;;;0.47;;
81799;SDS011;71195;52.528;5.704;2023-08-08T02:33:16;3.45;;;0.70;;
81799;SDS011;71195;52.528;5.704;2023-08-08T02:35:45;3.08;;;0.50;;
81799;SDS011;71195;52.528;5.704;2023-08-08T02:38:15;3.20;;;0.57;;
81799;SDS011;71195;52.528;5.704;2023-08-08T02:40:44;2.92;;;0.50;;
81799;SDS011;71195;52.528;5.704;2023-08-08T02:43:13;3.97;;;0.95;;
81799;SDS011;71195;52.528;5.704;2023-08-08T02:45:45;2.25;;;0.25;;
81799;SDS011;71195;52.528;5.704;2023-08-08T02:48:15;4.68;;;0.57;;
81799;SDS011;71195;52.528;5.704;2023-08-08T02:50:44;4.43;;;0.52;;
81799;SDS011;71195;52.528;5.704;2023-08-08T02:53:14;3.65;;;0.30;;
81799;SDS011;71195;52.528;5.704;2023-08-08T02:55:47;2.75;;;0.20;;
81799;SDS011;71195;52.528;5.704;2023-08-08T02:58:16;2.13;;;0.30;;
81799;SDS011;71195;52.528;5.704;2023-08-08T03:00:48;3.40;;;0.60;;
81799;SDS011;71195;52.528;5.704;2023-08-08T03:03:18;4.88;;;0.50;;
81799;SDS011;71195;52.528;5.704;2023-08-08T03:05:47;3.80;;;0.30;;
81799;SDS011;71195;52.528;5.704;2023-08-08T03:08:18;1.33;;;0.32;;
81799;SDS011;71195;52.528;5.704;2023-08-08T03:10:48;3.30;;;0.40;;
81799;SDS011;71195;52.528;5.704;2023-08-08T03:13:17;1.17;;;0.50;;
81799;SDS011;71195;52.528;5.704;2023-08-08T03:15:51;2.25;;;0.40;;
81799;SDS011;71195;52.528;5.704;2023-08-08T03:18:23;1.83;;;0.43;;
81799;SDS011;71195;52.528;5.704;2023-08-08T03:20:53;2.28;;;0.40;;
81799;SDS011;71195;52.528;5.704;2023-08-08T03:23:23;4.22;;;0.40;;
81799;SDS011;71195;52.528;5.704;2023-08-08T03:25:52;1.17;;;0.22;;
81799;SDS011;71195;52.528;5.704;2023-08-08T03:28:24;1.23;;;0.10;;
81799;SDS011;71195;52.528;5.704;2023-08-08T03:30:58;2.33;;;0.28;;
81799;SDS011;71195;52.528;5.704;2023-08-08T03:33:29;1.63;;;0.20;;
81799;SDS011;71195;52.528;5.704;2023-08-08T03:36:00;1.50;;;0.20;;
81799;SDS011;71195;52.528;5.704;2023-08-08T03:38:29;1.67;;;0.32;;
81799;SDS011;71195;52.528;5.704;2023-08-08T03:40:59;1.77;;;0.13;;
81799;SDS011;71195;52.528;5.704;2023-08-08T03:43:28;1.88;;;0.45;;
81799;SDS011;71195;52.528;5.704;2023-08-08T03:46:00;7.28;;;0.22;;
81799;SDS011;71195;52.528;5.704;2023-08-08T03:48:30;0.93;;;0.15;;
81799;SDS011;71195;52.528;5.704;2023-08-08T03:50:59;1.45;;;0.13;;
81799;SDS011;71195;52.528;5.704;2023-08-08T03:53:28;2.58;;;0.10;;
81799;SDS011;71195;52.528;5.704;2023-08-08T03:55:58;3.38;;;0.25;;
81799;SDS011;71195;52.528;5.704;2023-08-08T03:58:27;0.60;;;0.22;;
81799;SDS011;71195;52.528;5.704;2023-08-08T04:00:56;2.97;;;0.22;;
81799;SDS011;71195;52.528;5.704;2023-08-08T04:03:28;2.00;;;0.52;;
81799;SDS011;71195;52.528;5.704;2023-08-08T04:05:57;1.45;;;0.20;;
81799;SDS011;71195;52.528;5.704;2023-08-08T04:08:26;1.05;;;0.22;;
81799;SDS011;71195;52.528;5.704;2023-08-08T04:10:56;4.65;;;0.20;;
81799;SDS011;71195;52.528;5.704;2023-08-08T04:13:25;0.88;;;0.10;;
81799;SDS011;71195;52.528;5.704;2023-08-08T04:15:54;0.95;;;0.20;;
81799;SDS011;71195;52.528;5.704;2023-08-08T04:18:23;4.35;;;0.50;;
81799;SDS011;71195;52.528;5.704;2023-08-08T04:20:55;2.67;;;0.20;;
81799;SDS011;71195;52.528;5.704;2023-08-08T04:23:24;4.10;;;0.30;;
81799;SDS011;71195;52.528;5.704;2023-08-08T04:25:53;1.60;;;0.30;;
81799;SDS011;71195;52.528;5.704;2023-08-08T04:28:23;4.68;;;0.55;;
81799;SDS011;71195;52.528;5.704;2023-08-08T04:30:52;1.52;;;0.20;;
81799;SDS011;71195;52.528;5.704;2023-08-08T04:33:21;2.30;;;0.43;;
81799;SDS011;71195;52.528;5.704;2023-08-08T04:35:50;2.08;;;0.10;;
81799;SDS011;71195;52.528;5.704;2023-08-08T04:38:22;2.00;;;0.20;;
81799;SDS011;71195;52.528;5.704;2023-08-08T04:40:51;3.42;;;0.13;;
81799;SDS011;71195;52.528;5.704;2023-08-08T04:43:20;1.33;;;0.13;;
81799;SDS011;71195;52.528;5.704;2023-08-08T04:45:50;0.57;;;0.10;;
81799;SDS011;71195;52.528;5.704;2023-08-08T04:48:19;4.25;;;0.32;;
81799;SDS011;71195;52.528;5.704;2023-08-08T04:50:48;3.92;;;0.13;;
81799;SDS011;71195;52.528;5.704;2023-08-08T04:53:18;3.10;;;0.30;;
81799;SDS011;71195;52.528;5.704;2023-08-08T04:55:49;1.38;;;0.35;;
81799;SDS011;71195;52.528;5.704;2023-08-08T05:00:48;1.65;;;0.25;;
81799;SDS011;71195;52.528;5.704;2023-08-08T05:03:18;0.85;;;0.10;;
81799;SDS011;71195;52.528;5.704;2023-08-08T05:05:47;0.98;;;0.30;;
81799;SDS011;71195;52.528;5.704;2023-08-08T05:08:16;3.15;;;0.22;;
81799;SDS011;71195;52.528;5.704;2023-08-08T05:10:46;2.22;;;0.40;;
81799;SDS011;71195;52.528;5.704;2023-08-08T05:13:17;3.80;;;0.28;;
81799;SDS011;71195;52.528;5.704;2023-08-08T05:15:47;4.40;;;0.57;;
81799;SDS011;71195;52.528;5.704;2023-08-08T05:18:16;2.33;;;0.20;;
81799;SDS011;71195;52.528;5.704;2023-08-08T05:20:45;0.90;;;0.25;;
81799;SDS011;71195;52.528;5.704;2023-08-08T05:23:14;1.77;;;0.05;;
81799;SDS011;71195;52.528;5.704;2023-08-08T05:25:43;1.63;;;0.30;;
81799;SDS011;71195;52.528;5.704;2023-08-08T05:28:13;1.88;;;0.10;;
81799;SDS011;71195;52.528;5.704;2023-08-08T05:30:45;1.45;;;0.10;;
81799;SDS011;71195;52.528;5.704;2023-08-08T05:33:14;4.57;;;0.20;;
81799;SDS011;71195;52.528;5.704;2023-08-08T05:35:44;0.63;;;0.13;;
81799;SDS011;71195;52.528;5.704;2023-08-08T05:38:13;0.85;;;0.28;;
81799;SDS011;71195;52.528;5.704;2023-08-08T05:40:43;1.83;;;0.20;;
81799;SDS011;71195;52.528;5.704;2023-08-08T05:43:12;2.35;;;0.13;;
81799;SDS011;71195;52.528;5.704;2023-08-08T05:45:46;3.33;;;0.28;;
81799;SDS011;71195;52.528;5.704;2023-08-08T05:48:16;0.95;;;0.10;;
81799;SDS011;71195;52.528;5.704;2023-08-08T05:50:45;2.33;;;0.20;;
81799;SDS011;71195;52.528;5.704;2023-08-08T05:53:14;1.95;;;0.25;;
81799;SDS011;71195;52.528;5.704;2023-08-08T05:55:43;2.03;;;0.00;;
81799;SDS011;71195;52.528;5.704;2023-08-08T05:58:12;2.17;;;0.10;;
81799;SDS011;71195;52.528;5.704;2023-08-08T06:00:41;1.92;;;0.20;;
81799;SDS011;71195;52.528;5.704;2023-08-08T06:03:13;2.88;;;0.28;;
81799;SDS011;71195;52.528;5.704;2023-08-08T06:05:43;1.45;;;0.20;;
81799;SDS011;71195;52.528;5.704;2023-08-08T06:08:12;1.85;;;0.10;;
81799;SDS011;71195;52.528;5.704;2023-08-08T06:10:42;1.10;;;0.10;;
81799;SDS011;71195;52.528;5.704;2023-08-08T06:13:11;0.63;;;0.35;;
81799;SDS011;71195;52.528;5.704;2023-08-08T06:15:40;3.40;;;0.32;;
81799;SDS011;71195;52.528;5.704;2023-08-08T06:18:10;0.70;;;0.10;;
81799;SDS011;71195;52.528;5.704;2023-08-08T06:20:41;2.35;;;0.10;;
81799;SDS011;71195;52.528;5.704;2023-08-08T06:23:11;1.05;;;0.08;;
81799;SDS011;71195;52.528;5.704;2023-08-08T06:25:40;3.40;;;0.32;;
81799;SDS011;71195;52.528;5.704;2023-08-08T06:28:10;0.40;;;0.03;;
81799;SDS011;71195;52.528;5.704;2023-08-08T06:30:39;1.55;;;0.20;;
81799;SDS011;71195;52.528;5.704;2023-08-08T06:33:08;2.83;;;0.13;;
81799;SDS011;71195;52.528;5.704;2023-08-08T06:35:38;2.63;;;0.13;;
81799;SDS011;71195;52.528;5.704;2023-08-08T06:38:10;1.65;;;0.25;;
81799;SDS011;71195;52.528;5.704;2023-08-08T06:40:39;2.15;;;0.40;;
81799;SDS011;71195;52.528;5.704;2023-08-08T06:43:08;1.42;;;0.22;;
81799;SDS011;71195;52.528;5.704;2023-08-08T06:45:38;2.55;;;0.20;;
81799;SDS011;71195;52.528;5.704;2023-08-08T06:48:07;5.95;;;0.20;;
81799;SDS011;71195;52.528;5.704;2023-08-08T06:50:36;1.95;;;0.10;;
81799;SDS011;71195;52.528;5.704;2023-08-08T06:53:08;1.15;;;0.10;;
81799;SDS011;71195;52.528;5.704;2023-08-08T06:55:37;0.40;;;0.10;;
81799;SDS011;71195;52.528;5.704;2023-08-08T06:58:04;2.38;;;0.63;;
81799;SDS011;71195;52.528;5.704;2023-08-08T07:00:33;3.60;;;0.15;;
81799;SDS011;71195;52.528;5.704;2023-08-08T07:03:02;3.63;;;0.20;;
81799;SDS011;71195;52.528;5.704;2023-08-08T07:05:32;1.10;;;0.03;;
81799;SDS011;71195;52.528;5.704;2023-08-08T07:08:01;0.30;;;0.00;;
81799;SDS011;71195;52.528;5.704;2023-08-08T07:10:33;1.23;;;0.10;;
81799;SDS011;71195;52.528;5.704;2023-08-08T07:13:02;2.05;;;0.10;;
81799;SDS011;71195;52.528;5.704;2023-08-08T07:15:32;1.52;;;0.15;;
81799;SDS011;71195;52.528;5.704;2023-08-08T07:18:03;1.63;;;0.10;;
81799;SDS011;71195;52.528;5.704;2023-08-08T07:20:32;2.75;;;1.15;;
81799;SDS011;71195;52.528;5.704;2023-08-08T07:23:01;2.65;;;0.20;;
81799;SDS011;71195;52.528;5.704;2023-08-08T07:25:33;0.63;;;0.10;;
81799;SDS011;71195;52.528;5.704;2023-08-08T07:30:32;1.02;;;0.10;;
81799;SDS011;71195;52.528;5.704;2023-08-08T07:33:01;2.63;;;0.10;;
81799;SDS011;71195;52.528;5.704;2023-08-08T07:35:30;0.93;;;0.03;;
81799;SDS011;71195;52.528;5.704;2023-08-08T07:38:01;1.50;;;0.20;;
81799;SDS011;71195;52.528;5.704;2023-08-08T07:40:33;1.08;;;0.45;;
81799;SDS011;71195;52.528;5.704;2023-08-08T07:43:03;0.70;;;0.00;;
81799;SDS011;71195;52.528;5.704;2023-08-08T07:45:32;1.52;;;0.10;;
81799;SDS011;71195;52.528;5.704;2023-08-08T07:48:03;1.42;;;0.10;;
81799;SDS011;71195;52.528;5.704;2023-08-08T07:50:33;0.85;;;0.20;;
81799;SDS011;71195;52.528;5.704;2023-08-08T07:53:02;3.20;;;0.10;;
81799;SDS011;71195;52.528;5.704;2023-08-08T07:55:34;4.32;;;0.17;;
81799;SDS011;71195;52.528;5.704;2023-08-08T07:58:03;0.77;;;0.05;;
81799;SDS011;71195;52.528;5.704;2023-08-08T08:00:33;2.13;;;0.13;;
81799;SDS011;71195;52.528;5.704;2023-08-08T08:03:04;0.50;;;0.10;;
81799;SDS011;71195;52.528;5.704;2023-08-08T08:05:33;0.73;;;0.05;;
81799;SDS011;71195;52.528;5.704;2023-08-08T08:08:03;3.67;;;0.17;;
81799;SDS011;71195;52.528;5.704;2023-08-08T08:10:35;3.53;;;0.10;;
81799;SDS011;71195;52.528;5.704;2023-08-08T08:13:05;1.58;;;0.40;;
81799;SDS011;71195;52.528;5.704;2023-08-08T08:15:34;2.28;;;0.08;;
81799;SDS011;71195;52.528;5.704;2023-08-08T08:18:03;1.80;;;0.20;;
81799;SDS011;71195;52.528;5.704;2023-08-08T08:20:33;0.75;;;0.10;;
81799;SDS011;71195;52.528;5.704;2023-08-08T08:23:02;0.60;;;0.10;;
81799;SDS011;71195;52.528;5.704;2023-08-08T08:25:31;1.75;;;0.30;;
81799;SDS011;71195;52.528;5.704;2023-08-08T08:28:03;1.65;;;0.10;;
81799;SDS011;71195;52.528;5.704;2023-08-08T08:30:33;4.25;;;0.10;;
81799;SDS011;71195;52.528;5.704;2023-08-08T08:33:03;5.10;;;0.22;;
81799;SDS011;71195;52.528;5.704;2023-08-08T08:35:33;1.73;;;0.10;;
81799;SDS011;71195;52.528;5.704;2023-08-08T08:38:03;1.65;;;0.10;;
81799;SDS011;71195;52.528;5.704;2023-08-08T08:40:36;3.10;;;0.22;;
81799;SDS011;71195;52.528;5.704;2023-08-08T08:43:07;2.35;;;0.10;;
81799;SDS011;71195;52.528;5.704;2023-08-08T08:45:37;0.73;;;0.10;;
81799;SDS011;71195;52.528;5.704;2023-08-08T08:48:08;2.10;;;0.03;;
81799;SDS011;71195;52.528;5.704;2023-08-08T08:50:38;2.40;;;0.10;;
81799;SDS011;71195;52.528;5.704;2023-08-08T08:53:08;1.70;;;0.10;;
81799;SDS011;71195;52.528;5.704;2023-08-08T08:55:42;1.52;;;0.10;;
81799;SDS011;71195;52.528;5.704;2023-08-08T08:58:13;1.83;;;0.00;;
81799;SDS011;71195;52.528;5.704;2023-08-08T09:00:44;0.77;;;0.13;;
81799;SDS011;71195;52.528;5.704;2023-08-08T09:03:13;0.90;;;0.10;;
81799;SDS011;71195;52.528;5.704;2023-08-08T09:05:45;1.05;;;0.50;;
81799;SDS011;71195;52.528;5.704;2023-08-08T09:08:15;3.08;;;0.10;;
81799;SDS011;71195;52.528;5.704;2023-08-08T09:10:47;3.47;;;0.20;;
81799;SDS011;71195;52.528;5.704;2023-08-08T09:13:16;0.45;;;0.03;;
81799;SDS011;71195;52.528;5.704;2023-08-08T09:18:17;1.45;;;0.20;;
81799;SDS011;71195;52.528;5.704;2023-08-08T09:20:47;2.83;;;0.20;;
81799;SDS011;71195;52.528;5.704;2023-08-08T09:23:17;1.65;;;0.10;;
81799;SDS011;71195;52.528;5.704;2023-08-08T09:25:49;1.05;;;0.10;;
81799;SDS011;71195;52.528;5.704;2023-08-08T09:28:18;1.52;;;0.10;;
81799;SDS011;71195;52.528;5.704;2023-08-08T09:30:47;0.75;;;0.10;;
81799;SDS011;71195;52.528;5.704;2023-08-08T09:33:17;1.17;;;0.52;;
81799;SDS011;71195;52.528;5.704;2023-08-08T09:35:46;1.33;;;0.13;;
81799;SDS011;71195;52.528;5.704;2023-08-08T09:38:16;0.85;;;0.05;;
81799;SDS011;71195;52.528;5.704;2023-08-08T09:40:45;1.38;;;0.10;;
81799;SDS011;71195;52.528;5.704;2023-08-08T09:43:17;0.65;;;0.10;;
81799;SDS011;71195;52.528;5.704;2023-08-08T09:45:47;0.73;;;0.17;;
81799;SDS011;71195;52.528;5.704;2023-08-08T09:48:16;1.05;;;0.10;;
81799;SDS011;71195;52.528;5.704;2023-08-08T09:50:47;1.98;;;0.03;;
81799;SDS011;71195;52.528;5.704;2023-08-08T09:53:17;1.13;;;0.10;;
81799;SDS011;71195;52.528;5.704;2023-08-08T09:55:47;0.70;;;0.10;;
81799;SDS011;71195;52.528;5.704;2023-08-08T09:58:20;0.40;;;0.10;;
81799;SDS011;71195;52.528;5.704;2023-08-08T10:00:50;1.75;;;0.45;;
81799;SDS011;71195;52.528;5.704;2023-08-08T10:03:19;0.68;;;0.10;;
81799;SDS011;71195;52.528;5.704;2023-08-08T10:05:48;0.63;;;0.10;;
81799;SDS011;71195;52.528;5.704;2023-08-08T10:08:18;1.83;;;0.10;;
81799;SDS011;71195;52.528;5.704;2023-08-08T10:10:48;2.08;;;0.20;;
81799;SDS011;71195;52.528;5.704;2023-08-08T10:13:22;4.20;;;0.40;;
81799;SDS011;71195;52.528;5.704;2023-08-08T10:15:52;5.90;;;0.15;;
81799;SDS011;71195;52.528;5.704;2023-08-08T10:18:23;0.63;;;0.20;;
81799;SDS011;71195;52.528;5.704;2023-08-08T10:20:52;0.93;;;0.10;;
81799;SDS011;71195;52.528;5.704;2023-08-08T10:23:21;1.33;;;0.10;;
81799;SDS011;71195;52.528;5.704;2023-08-08T10:25:51;0.93;;;0.15;;
81799;SDS011;71195;52.528;5.704;2023-08-08T10:28:23;1.58;;;0.03;;
81799;SDS011;71195;52.528;5.704;2023-08-08T10:30:55;3.17;;;0.10;;
81799;SDS011;71195;52.528;5.704;2023-08-08T10:33:27;3.22;;;0.30;;
81799;SDS011;71195;52.528;5.704;2023-08-08T10:36:07;2.70;;;0.20;;
81799;SDS011;71195;52.528;5.704;2023-08-08T10:38:39;1.00;;;0.22;;
81799;SDS011;71195;52.528;5.704;2023-08-08T10:41:11;0.98;;;0.00;;
81799;SDS011;71195;52.528;5.704;2023-08-08T10:43:49;1.00;;;0.30;;
81799;SDS011;71195;52.528;5.704;2023-08-08T10:46:23;0.63;;;0.00;;
81799;SDS011;71195;52.528;5.704;2023-08-08T10:48:53;2.22;;;0.20;;
81799;SDS011;71195;52.528;5.704;2023-08-08T10:51:31;2.65;;;0.20;;
81799;SDS011;71195;52.528;5.704;2023-08-08T10:54:04;1.73;;;0.10;;
81799;SDS011;71195;52.528;5.704;2023-08-08T10:56:35;1.67;;;0.20;;
81799;SDS011;71195;52.528;5.704;2023-08-08T10:59:14;1.83;;;0.08;;
81799;SDS011;71195;52.528;5.704;2023-08-08T11:01:45;0.85;;;0.10;;
81799;SDS011;71195;52.528;5.704;2023-08-08T11:04:17;1.33;;;0.30;;
81799;SDS011;71195;52.528;5.704;2023-08-08T11:06:49;0.90;;;0.17;;
81799;SDS011;71195;52.528;5.704;2023-08-08T11:09:18;2.70;;;0.13;;
81799;SDS011;71195;52.528;5.704;2023-08-08T11:11:48;1.40;;;0.22;;
81799;SDS011;71195;52.528;5.704;2023-08-08T11:14:20;0.43;;;0.05;;
81799;SDS011;71195;52.528;5.704;2023-08-08T11:16:51;1.98;;;0.10;;
81799;SDS011;71195;52.528;5.704;2023-08-08T11:19:21;1.67;;;0.20;;
81799;SDS011;71195;52.528;5.704;2023-08-08T11:21:51;0.93;;;0.30;;
81799;SDS011;71195;52.528;5.704;2023-08-08T11:24:20;2.53;;;0.30;;
81799;SDS011;71195;52.528;5.704;2023-08-08T11:26:49;1.60;;;0.20;;
81799;SDS011;71195;52.528;5.704;2023-08-08T11:29:21;1.48;;;0.30;;
81799;SDS011;71195;52.528;5.704;2023-08-08T11:31:56;1.27;;;0.40;;
81799;SDS011;71195;52.528;5.704;2023-08-08T11:34:25;1.85;;;0.10;;
81799;SDS011;71195;52.528;5.704;2023-08-08T11:36:54;1.45;;;0.10;;
81799;SDS011;71195;52.528;5.704;2023-08-08T11:39:24;1.85;;;0.30;;
81799;SDS011;71195;52.528;5.704;2023-08-08T11:41:54;1.00;;;0.25;;
81799;SDS011;71195;52.528;5.704;2023-08-08T11:44:27;0.55;;;0.10;;
81799;SDS011;71195;52.528;5.704;2023-08-08T11:49:27;0.30;;;0.00;;
81799;SDS011;71195;52.528;5.704;2023-08-08T11:51:57;3.92;;;0.22;;
81799;SDS011;71195;52.528;5.704;2023-08-08T11:54:26;0.80;;;0.10;;
81799;SDS011;71195;52.528;5.704;2023-08-08T11:56:56;2.88;;;0.10;;
81799;SDS011;71195;52.528;5.704;2023-08-08T11:59:28;0.30;;;0.10;;
81799;SDS011;71195;52.528;5.704;2023-08-08T12:01:59;3.47;;;0.17;;
81799;SDS011;71195;52.528;5.704;2023-08-08T12:04:28;0.73;;;0.22;;
81799;SDS011;71195;52.528;5.704;2023-08-08T12:07:01;1.35;;;0.10;;
81799;SDS011;71195;52.528;5.704;2023-08-08T12:09:31;1.42;;;0.13;;
81799;SDS011;71195;52.528;5.704;2023-08-08T12:12:01;1.20;;;0.10;;
81799;SDS011;71195;52.528;5.704;2023-08-08T12:14:38;1.38;;;0.13;;
81799;SDS011;71195;52.528;5.704;2023-08-08T12:17:07;2.63;;;0.10;;
81799;SDS011;71195;52.528;5.704;2023-08-08T12:19:44;2.72;;;0.10;;
81799;SDS011;71195;52.528;5.704;2023-08-08T12:22:15;0.60;;;0.10;;
81799;SDS011;71195;52.528;5.704;2023-08-08T12:24:44;0.68;;;0.10;;
81799;SDS011;71195;52.528;5.704;2023-08-08T12:27:13;1.10;;;0.10;;
81799;SDS011;71195;52.528;5.704;2023-08-08T12:29:45;0.80;;;0.00;;
81799;SDS011;71195;52.528;5.704;2023-08-08T12:32:14;1.00;;;0.17;;
81799;SDS011;71195;52.528;5.704;2023-08-08T12:34:43;2.20;;;0.22;;
81799;SDS011;71195;52.528;5.704;2023-08-08T12:37:12;2.00;;;0.15;;
81799;SDS011;71195;52.528;5.704;2023-08-08T12:39:42;2.05;;;0.20;;
81799;SDS011;71195;52.528;5.704;2023-08-08T12:42:11;0.98;;;0.17;;
81799;SDS011;71195;52.528;5.704;2023-08-08T12:44:40;0.82;;;0.10;;
81799;SDS011;71195;52.528;5.704;2023-08-08T12:47:14;2.17;;;0.10;;
81799;SDS011;71195;52.528;5.704;2023-08-08T12:49:43;1.33;;;0.25;;
81799;SDS011;71195;52.528;5.704;2023-08-08T12:52:12;1.30;;;0.10;;
81799;SDS011;71195;52.528;5.704;2023-08-08T12:54:42;1.00;;;0.20;;
81799;SDS011;71195;52.528;5.704;2023-08-08T12:57:11;0.63;;;0.10;;
81799;SDS011;71195;52.528;5.704;2023-08-08T12:59:40;1.38;;;0.17;;
81799;SDS011;71195;52.528;5.704;2023-08-08T13:02:12;1.98;;;0.10;;
81799;SDS011;71195;52.528;5.704;2023-08-08T13:07:10;2.17;;;0.00;;
81799;SDS011;71195;52.528;5.704;2023-08-08T13:09:40;2.25;;;0.20;;
81799;SDS011;71195;52.528;5.704;2023-08-08T13:12:09;2.40;;;0.20;;
81799;SDS011;71195;52.528;5.704;2023-08-08T13:14:38;1.05;;;0.08;;
81799;SDS011;71195;52.528;5.704;2023-08-08T13:17:07;2.05;;;0.20;;
81799;SDS011;71195;52.528;5.704;2023-08-08T13:19:39;4.13;;;0.20;;
81799;SDS011;71195;52.528;5.704;2023-08-08T13:22:09;1.58;;;0.10;;
81799;SDS011;71195;52.528;5.704;2023-08-08T13:24:38;0.77;;;0.10;;
81799;SDS011;71195;52.528;5.704;2023-08-08T13:27:07;2.85;;;0.20;;
81799;SDS011;71195;52.528;5.704;2023-08-08T13:29:36;1.10;;;0.10;;
81799;SDS011;71195;52.528;5.704;2023-08-08T13:32:06;1.25;;;0.10;;
81799;SDS011;71195;52.528;5.704;2023-08-08T13:34:35;0.90;;;0.15;;
81799;SDS011;71195;52.528;5.704;2023-08-08T13:37:07;4.32;;;0.22;;
81799;SDS011;71195;52.528;5.704;2023-08-08T13:42:05;2.67;;;0.08;;
81799;SDS011;71195;52.528;5.704;2023-08-08T13:44:35;1.30;;;0.10;;
81799;SDS011;71195;52.528;5.704;2023-08-08T13:47:04;1.00;;;0.08;;
81799;SDS011;71195;52.528;5.704;2023-08-08T13:49:34;1.48;;;0.17;;
81799;SDS011;71195;52.528;5.704;2023-08-08T13:52:03;0.85;;;0.20;;
81799;SDS011;71195;52.528;5.704;2023-08-08T13:54:35;1.10;;;0.10;;
81799;SDS011;71195;52.528;5.704;2023-08-08T13:57:05;1.30;;;0.10;;
81799;SDS011;71195;52.528;5.704;2023-08-08T13:59:34;1.38;;;0.10;;
81799;SDS011;71195;52.528;5.704;2023-08-08T14:02:03;1.48;;;0.10;;
81799;SDS011;71195;52.528;5.704;2023-08-08T14:04:32;1.35;;;0.20;;
81799;SDS011;71195;52.528;5.704;2023-08-08T14:07:02;1.58;;;0.10;;
81799;SDS011;71195;52.528;5.704;2023-08-08T14:09:35;0.57;;;0.10;;
81799;SDS011;71195;52.528;5.704;2023-08-08T14:14:33;0.43;;;0.00;;
81799;SDS011;71195;52.528;5.704;2023-08-08T14:17:02;0.63;;;0.10;;
81799;SDS011;71195;52.528;5.704;2023-08-08T14:19:32;1.30;;;0.30;;
81799;SDS011;71195;52.528;5.704;2023-08-08T14:22:01;1.33;;;0.22;;
81799;SDS011;71195;52.528;5.704;2023-08-08T14:24:31;1.50;;;0.10;;
81799;SDS011;71195;52.528;5.704;2023-08-08T14:27:02;0.77;;;0.20;;
81799;SDS011;71195;52.528;5.704;2023-08-08T14:32:00;2.40;;;0.20;;
81799;SDS011;71195;52.528;5.704;2023-08-08T14:34:30;0.75;;;0.00;;
81799;SDS011;71195;52.528;5.704;2023-08-08T14:37:00;1.77;;;0.40;;
81799;SDS011;71195;52.528;5.704;2023-08-08T14:39:29;2.45;;;0.30;;
81799;SDS011;71195;52.528;5.704;2023-08-08T14:41:59;1.02;;;0.10;;
81799;SDS011;71195;52.528;5.704;2023-08-08T14:44:30;0.93;;;0.20;;
81799;SDS011;71195;52.528;5.704;2023-08-08T14:49:28;1.45;;;0.05;;
81799;SDS011;71195;52.528;5.704;2023-08-08T14:51:58;3.30;;;0.25;;
81799;SDS011;71195;52.528;5.704;2023-08-08T14:54:27;1.08;;;0.10;;
81799;SDS011;71195;52.528;5.704;2023-08-08T14:56:56;1.15;;;0.30;;
81799;SDS011;71195;52.528;5.704;2023-08-08T14:59:27;3.03;;;0.20;;
81799;SDS011;71195;52.528;5.704;2023-08-08T15:01:59;1.58;;;0.10;;
81799;SDS011;71195;52.528;5.704;2023-08-08T15:04:29;1.63;;;0.28;;
81799;SDS011;71195;52.528;5.704;2023-08-08T15:06:58;1.90;;;0.10;;
81799;SDS011;71195;52.528;5.704;2023-08-08T15:09:27;1.35;;;0.20;;
81799;SDS011;71195;52.528;5.704;2023-08-08T15:11:56;2.70;;;0.35;;
81799;SDS011;71195;52.528;5.704;2023-08-08T15:14:25;0.98;;;0.32;;
81799;SDS011;71195;52.528;5.704;2023-08-08T15:16:55;1.02;;;0.10;;
81799;SDS011;71195;52.528;5.704;2023-08-08T15:19:27;2.78;;;0.30;;
81799;SDS011;71195;52.528;5.704;2023-08-08T15:21:56;2.00;;;0.20;;
81799;SDS011;71195;52.528;5.704;2023-08-08T15:24:25;1.23;;;0.20;;
81799;SDS011;71195;52.528;5.704;2023-08-08T15:26:55;1.45;;;0.20;;
81799;SDS011;71195;52.528;5.704;2023-08-08T15:29:24;2.85;;;0.20;;